This is the latest recevied weather packets stored in our database for station/object N2PPN. If no packets are shown the sender has not sent any weather packets the latest 1 day(s).
| Time | Temp. | Humidity | Pressure | Rain* | Wind** | Luminosity | Snow |
|---|---|---|---|---|---|---|---|
| 1778048187 | 13.33° C | 91% | 1014.3 hPa | 0 mm | 2.68 m/s, 242° | 0 W/m² | - |
| 1778047886 | 13.33° C | 91% | 1014.1 hPa | 0 mm | 1.79 m/s, 218° | 0 W/m² | - |
| 1778047584 | 13.33° C | 91% | 1014.2 hPa | 0 mm | 2.68 m/s, 217° | 0 W/m² | - |
| 1778047280 | 13.89° C | 90% | 1014.1 hPa | 0 mm | 2.68 m/s, 224° | 0 W/m² | - |
| 1778046978 | 13.89° C | 91% | 1014 hPa | 0 mm | 2.24 m/s, 203° | 0 W/m² | - |
| 1778046674 | 13.89° C | 90% | 1014.3 hPa | 0 mm | 2.68 m/s, 182° | 0 W/m² | - |
| 1778046371 | 13.89° C | 90% | 1014.4 hPa | 0 mm | 4.02 m/s, 200° | 0 W/m² | - |
| 1778046067 | 13.89° C | 90% | 1014.6 hPa | 0 mm | 4.02 m/s, 226° | 0 W/m² | - |
| 1778045765 | 13.89° C | 90% | 1014.4 hPa | 0 mm | 2.68 m/s, 205° | 0 W/m² | - |
| 1778045464 | 13.89° C | 89% | 1014.5 hPa | 0 mm | 3.13 m/s, 248° | 0 W/m² | - |
| 1778045161 | 13.89° C | 89% | 1014.5 hPa | 0 mm | 1.79 m/s, 223° | 0 W/m² | - |
| 1778044859 | 13.89° C | 89% | 1014.4 hPa | 0 mm | 2.24 m/s, 237° | 0 W/m² | - |
| 1778044555 | 13.89° C | 89% | 1014.5 hPa | 0 mm | 3.13 m/s, 218° | 0 W/m² | - |
| 1778044252 | 13.89° C | 89% | 1014.6 hPa | 0 mm | 2.68 m/s, 207° | 0 W/m² | - |
| 1778043950 | 13.89° C | 88% | 1014.5 hPa | 0 mm | 3.58 m/s, 243° | 0 W/m² | - |
| 1778043648 | 14.44° C | 88% | 1014.8 hPa | 0 mm | 4.47 m/s, 261° | 0 W/m² | - |
| 1778043344 | 14.44° C | 88% | 1014.5 hPa | 0 mm | 3.13 m/s, 254° | 0 W/m² | - |
| 1778043041 | 14.44° C | 88% | 1014.7 hPa | 0 mm | 5.36 m/s, 244° | 0 W/m² | - |
| 1778042739 | 14.44° C | 87% | 1014.5 hPa | 0 mm | 4.02 m/s, 196° | 0 W/m² | - |
| 1778042435 | 14.44° C | 87% | 1014.7 hPa | 0 mm | 6.71 m/s, 240° | 0 W/m² | - |
| 1778042132 | 14.44° C | 87% | 1014.7 hPa | 0 mm | 4.92 m/s, 236° | 0 W/m² | - |
| 1778041831 | 14.44° C | 87% | 1014.8 hPa | 0 mm | 4.92 m/s, 245° | 0 W/m² | - |
| 1778041529 | 14.44° C | 87% | 1014.8 hPa | 0 mm | 3.58 m/s, 269° | 0 W/m² | - |
| 1778041227 | 14.44° C | 87% | 1014.9 hPa | 0 mm | 4.02 m/s, 225° | 0 W/m² | - |
| 1778040926 | 14.44° C | 87% | 1014.7 hPa | 0 mm | 5.81 m/s, 234° | 0 W/m² | - |
* Rain latest hour (hover to see other rain measurements)
** Current wind speed in m/s (hover to see current wind gust speed)